Time,TemperatureF,DewpointF,PressureIn,WindDirection,WindDirectionDegrees,WindSpeedMPH,WindSpeedGustMPH,Humidity,HourlyPrecipIn,Conditions,Clouds,dailyrainin,SoftwareType,DateUTC
2013-05-25 00:10:00,57.9,41.8,29.97,East,90,0.0,-999.0,55,-99.99,,,0.00,Acu-Link.com,2013-05-25 04:10:00,
2013-05-25 00:25:00,58.8,41.2,29.96,WSW,247,0.0,-999.0,52,-99.99,,,0.00,Acu-Link.com,2013-05-25 04:25:00,
2013-05-25 00:40:00,58.6,39.5,29.97,NNE,22,0.0,-999.0,49,-99.99,,,0.00,Acu-Link.com,2013-05-25 04:40:00,
2013-05-25 00:55:00,58.8,39.7,29.96,NW,315,0.0,-999.0,49,-99.99,,,0.00,Acu-Link.com,2013-05-25 04:55:00,
2013-05-25 01:10:00,58.6,39.5,29.96,WNW,292,0.0,-999.0,49,-99.99,,,0.00,Acu-Link.com,2013-05-25 05:10:00,
2013-05-25 01:25:00,58.5,40.4,29.96,West,270,1.1,-999.0,51,-99.99,,,0.00,Acu-Link.com,2013-05-25 05:25:00,
2013-05-25 01:40:00,57.9,40.9,29.96,East,90,1.1,-999.0,53,-99.99,,,0.00,Acu-Link.com,2013-05-25 05:40:00,
2013-05-25 01:56:00,58.3,39.7,29.97,WSW,247,0.0,-999.0,50,-99.99,,,0.00,Acu-Link.com,2013-05-25 05:56:00,
2013-05-25 02:11:00,57.9,39.4,29.97,NNE,22,0.0,-999.0,50,-99.99,,,0.00,Acu-Link.com,2013-05-25 06:11:00,
2013-05-25 02:26:00,57.9,38.9,29.97,East,90,1.7,-999.0,49,-99.99,,,0.00,Acu-Link.com,2013-05-25 06:26:00,
2013-05-25 02:41:00,57.9,38.9,29.97,NE,45,2.7,-999.0,49,-99.99,,,0.00,Acu-Link.com,2013-05-25 06:41:00,
2013-05-25 02:56:00,57.7,38.7,29.97,East,90,1.7,-999.0,49,-99.99,,,0.00,Acu-Link.com,2013-05-25 06:56:00,
2013-05-25 03:11:00,57.6,38.6,29.98,East,90,1.7,-999.0,49,-99.99,,,0.00,Acu-Link.com,2013-05-25 07:11:00,
2013-05-25 03:26:00,57.4,38.9,29.96,ESE,112,0.0,-999.0,50,-99.99,,,0.00,Acu-Link.com,2013-05-25 07:26:00,
2013-05-25 03:41:00,57.0,39.1,29.97,WNW,292,3.7,-999.0,51,-99.99,,,0.00,Acu-Link.com,2013-05-25 07:41:00,
2013-05-25 03:56:00,57.0,39.1,29.96,NNE,22,2.2,-999.0,51,-99.99,,,0.00,Acu-Link.com,2013-05-25 07:56:00,
2013-05-25 04:12:00,56.5,39.1,29.97,WNW,292,0.0,-999.0,52,-99.99,,,0.00,Acu-Link.com,2013-05-25 08:12:00,
2013-05-25 04:27:00,55.9,40.0,29.96,SW,225,1.1,-999.0,55,-99.99,,,0.00,Acu-Link.com,2013-05-25 08:27:00,
2013-05-25 04:42:00,55.9,39.5,29.97,West,270,0.0,-999.0,54,-99.99,,,0.00,Acu-Link.com,2013-05-25 08:42:00,
2013-05-25 04:58:00,55.8,38.9,29.97,SSE,157,1.1,-999.0,53,-99.99,,,0.00,Acu-Link.com,2013-05-25 08:58:00,
2013-05-25 05:13:00,55.8,38.9,29.96,WSW,247,3.2,-999.0,53,-99.99,,,0.00,Acu-Link.com,2013-05-25 09:13:00,
2013-05-25 05:29:00,55.9,38.5,29.97,West,270,2.2,-999.0,52,-99.99,,,0.00,Acu-Link.com,2013-05-25 09:29:00,
2013-05-25 05:44:00,55.4,37.6,29.98,SSE,157,3.7,-999.0,51,-99.99,,,0.00,Acu-Link.com,2013-05-25 09:44:00,
2013-05-25 05:59:00,55.4,37.6,29.99,NNW,337,2.2,-999.0,51,-99.99,,,0.00,Acu-Link.com,2013-05-25 09:59:00,
2013-05-25 06:14:00,54.9,38.1,29.99,East,90,2.7,-999.0,53,-99.99,,,0.00,Acu-Link.com,2013-05-25 10:14:00,
2013-05-25 06:29:00,54.7,38.4,30.00,ESE,112,2.7,-999.0,54,-99.99,,,0.00,Acu-Link.com,2013-05-25 10:29:00,
2013-05-25 06:44:00,54.7,37.4,30.00,WSW,247,3.7,-999.0,52,-99.99,,,0.00,Acu-Link.com,2013-05-25 10:44:00,
2013-05-25 06:59:00,55.0,37.7,30.01,SSW,202,1.7,-999.0,52,-99.99,,,0.00,Acu-Link.com,2013-05-25 10:59:00,
2013-05-25 07:14:00,54.1,40.5,30.02,WSW,247,1.1,-999.0,60,-99.99,,,0.00,Acu-Link.com,2013-05-25 11:14:00,
2013-05-25 07:29:00,53.2,41.3,30.02,SW,225,0.0,-999.0,64,-99.99,,,0.00,Acu-Link.com,2013-05-25 11:29:00,
2013-05-25 07:45:00,53.2,40.9,30.03,SW,225,0.0,-999.0,63,-99.99,,,0.00,Acu-Link.com,2013-05-25 11:45:00,
2013-05-25 08:00:00,53.2,41.3,30.04,SW,225,0.0,-999.0,64,-99.99,,,0.00,Acu-Link.com,2013-05-25 12:00:00,
2013-05-25 08:15:00,53.1,41.2,30.05,South,180,0.0,-999.0,64,-99.99,,,0.00,Acu-Link.com,2013-05-25 12:15:00,
2013-05-25 08:30:00,53.1,42.4,30.04,South,180,0.0,-999.0,67,-99.99,,,0.00,Acu-Link.com,2013-05-25 12:30:00,
2013-05-25 08:45:00,53.6,41.3,30.05,South,180,0.0,-999.0,63,-99.99,,,0.00,Acu-Link.com,2013-05-25 12:45:00,
2013-05-25 09:00:00,54.7,44.3,30.06,South,180,0.0,-999.0,68,-99.99,,,0.00,Acu-Link.com,2013-05-25 13:00:00,
2013-05-25 09:15:00,56.3,44.3,30.06,South,180,0.0,-999.0,64,-99.99,,,0.00,Acu-Link.com,2013-05-25 13:15:00,
2013-05-25 09:30:00,57.7,43.9,30.07,WSW,247,0.0,-999.0,60,-99.99,,,0.00,Acu-Link.com,2013-05-25 13:30:00,
2013-05-25 09:45:00,59.5,40.8,30.06,ESE,112,0.0,-999.0,50,-99.99,,,0.00,Acu-Link.com,2013-05-25 13:45:00,
2013-05-25 10:01:00,61.2,40.3,30.06,SE,135,0.0,-999.0,46,-99.99,,,0.00,Acu-Link.com,2013-05-25 14:01:00,
2013-05-25 10:16:00,62.6,42.1,30.07,ESE,112,0.0,-999.0,47,-99.99,,,0.00,Acu-Link.com,2013-05-25 14:16:00,
2013-05-25 10:31:00,63.9,39.7,30.07,SW,225,0.0,-999.0,41,-99.99,,,0.00,Acu-Link.com,2013-05-25 14:31:00,
2013-05-25 10:46:00,65.1,40.2,30.06,West,270,0.0,-999.0,40,-99.99,,,0.00,Acu-Link.com,2013-05-25 14:46:00,
2013-05-25 11:01:00,66.2,41.2,30.06,West,270,1.7,-999.0,40,-99.99,,,0.00,Acu-Link.com,2013-05-25 15:01:00,
2013-05-25 11:16:00,67.6,39.0,30.06,ENE,67,0.0,-999.0,35,-99.99,,,0.00,Acu-Link.com,2013-05-25 15:16:00,
2013-05-25 11:31:00,68.2,38.8,30.06,South,180,0.0,-999.0,34,-99.99,,,0.00,Acu-Link.com,2013-05-25 15:31:00,
2013-05-25 11:46:00,69.4,33.0,30.06,NNW,337,0.0,-999.0,26,-99.99,,,0.00,Acu-Link.com,2013-05-25 15:46:00,
2013-05-25 12:01:00,70.0,41.1,30.06,WSW,247,3.2,-999.0,35,-99.99,,,0.00,Acu-Link.com,2013-05-25 16:01:00,
2013-05-25 12:17:00,70.5,40.8,30.06,NE,45,1.7,-999.0,34,-99.99,,,0.00,Acu-Link.com,2013-05-25 16:17:00,
2013-05-25 12:32:00,70.7,42.4,30.04,South,180,1.1,-999.0,36,-99.99,,,0.00,Acu-Link.com,2013-05-25 16:32:00,
2013-05-25 12:47:00,71.1,42.8,30.04,SW,225,3.7,-999.0,36,-99.99,,,0.00,Acu-Link.com,2013-05-25 16:47:00,
2013-05-25 13:02:00,72.7,42.7,30.03,WSW,247,4.7,-999.0,34,-99.99,,,0.00,Acu-Link.com,2013-05-25 17:02:00,
2013-05-25 13:17:00,73.2,43.1,30.02,SSW,202,2.7,-999.0,34,-99.99,,,0.00,Acu-Link.com,2013-05-25 17:17:00,
2013-05-25 13:32:00,72.9,39.6,30.01,SSW,202,1.7,-999.0,30,-99.99,,,0.00,Acu-Link.com,2013-05-25 17:32:00,
2013-05-25 13:47:00,73.8,43.7,30.00,NW,315,1.7,-999.0,34,-99.99,,,0.00,Acu-Link.com,2013-05-25 17:47:00,
2013-05-25 14:02:00,73.9,42.2,30.00,NW,315,1.7,-999.0,32,-99.99,,,0.00,Acu-Link.com,2013-05-25 18:02:00,
2013-05-25 14:17:00,74.7,44.5,29.99,ESE,112,1.7,-999.0,34,-99.99,,,0.00,Acu-Link.com,2013-05-25 18:17:00,
2013-05-25 14:33:00,75.0,45.5,29.99,South,180,3.2,-999.0,35,-99.99,,,0.00,Acu-Link.com,2013-05-25 18:33:00,
2013-05-25 14:48:00,73.6,44.2,29.98,West,270,3.2,-999.0,35,-99.99,,,0.00,Acu-Link.com,2013-05-25 18:48:00,
2013-05-25 15:03:00,73.8,45.2,29.97,NW,315,4.2,-999.0,36,-99.99,,,0.00,Acu-Link.com,2013-05-25 19:03:00,
2013-05-25 15:18:00,74.8,43.8,29.96,WSW,247,2.7,-999.0,33,-99.99,,,0.00,Acu-Link.com,2013-05-25 19:18:00,
2013-05-25 15:33:00,75.7,45.3,29.96,WSW,247,2.2,-999.0,34,-99.99,,,0.00,Acu-Link.com,2013-05-25 19:33:00,
2013-05-25 15:48:00,75.4,45.8,29.95,NE,45,1.7,-999.0,35,-99.99,,,0.00,Acu-Link.com,2013-05-25 19:48:00,
2013-05-25 16:03:00,74.7,46.0,29.95,West,270,2.2,-999.0,36,-99.99,,,0.00,Acu-Link.com,2013-05-25 20:03:00,
2013-05-25 16:18:00,77.2,46.6,29.95,West,270,3.2,-999.0,34,-99.99,,,0.00,Acu-Link.com,2013-05-25 20:18:00,
2013-05-25 16:33:00,76.1,47.9,29.95,West,270,1.7,-999.0,37,-99.99,,,0.00,Acu-Link.com,2013-05-25 20:33:00,
2013-05-25 16:48:00,77.9,49.5,29.94,WSW,247,0.0,-999.0,37,-99.99,,,0.00,Acu-Link.com,2013-05-25 20:48:00,
2013-05-25 17:04:00,75.4,49.4,29.94,SW,225,1.7,-999.0,40,-99.99,,,0.00,Acu-Link.com,2013-05-25 21:04:00,
2013-05-25 17:19:00,78.8,49.6,29.94,WNW,292,1.7,-999.0,36,-99.99,,,0.00,Acu-Link.com,2013-05-25 21:19:00,
2013-05-25 17:34:00,77.2,51.0,29.94,SSE,157,1.1,-999.0,40,-99.99,,,0.00,Acu-Link.com,2013-05-25 21:34:00,
2013-05-25 17:49:00,78.4,49.2,29.94,SW,225,0.0,-999.0,36,-99.99,,,0.00,Acu-Link.com,2013-05-25 21:49:00,
2013-05-25 18:04:00,75.9,49.1,29.93,WNW,292,1.7,-999.0,39,-99.99,,,0.00,Acu-Link.com,2013-05-25 22:04:00,
2013-05-25 18:19:00,73.9,51.2,29.93,SE,135,1.7,-999.0,45,-99.99,,,0.00,Acu-Link.com,2013-05-25 22:19:00,
2013-05-25 18:34:00,73.9,50.0,29.93,West,270,1.7,-999.0,43,-99.99,,,0.00,Acu-Link.com,2013-05-25 22:34:00,
2013-05-25 18:49:00,73.9,48.7,29.93,West,270,0.0,-999.0,41,-99.99,,,0.00,Acu-Link.com,2013-05-25 22:49:00,
2013-05-25 19:04:00,72.5,50.5,29.93,SSW,202,1.1,-999.0,46,-99.99,,,0.00,Acu-Link.com,2013-05-25 23:04:00,
2013-05-25 19:20:00,72.7,50.7,29.93,WSW,247,0.0,-999.0,46,-99.99,,,0.00,Acu-Link.com,2013-05-25 23:20:00,
2013-05-25 19:35:00,72.3,49.2,29.93,WSW,247,0.0,-999.0,44,-99.99,,,0.00,Acu-Link.com,2013-05-25 23:35:00,
2013-05-25 19:50:00,71.8,49.9,29.93,WSW,247,0.0,-999.0,46,-99.99,,,0.00,Acu-Link.com,2013-05-25 23:50:00,
2013-05-25 20:05:00,71.2,51.0,29.94,WSW,247,0.0,-999.0,49,-99.99,,,0.00,Acu-Link.com,2013-05-26 00:05:00,
2013-05-25 20:20:00,69.8,51.9,29.94,WSW,247,0.0,-999.0,53,-99.99,,,0.00,Acu-Link.com,2013-05-26 00:20:00,
2013-05-25 20:35:00,68.2,51.9,29.94,WSW,247,0.0,-999.0,56,-99.99,,,0.00,Acu-Link.com,2013-05-26 00:35:00,
2013-05-25 20:50:00,66.9,51.2,29.94,WSW,247,0.0,-999.0,57,-99.99,,,0.00,Acu-Link.com,2013-05-26 00:50:00,
2013-05-25 21:05:00,66.0,51.7,29.94,SSE,157,0.0,-999.0,60,-99.99,,,0.00,Acu-Link.com,2013-05-26 01:05:00,
2013-05-25 21:20:00,65.5,50.8,29.94,South,180,0.0,-999.0,59,-99.99,,,0.00,Acu-Link.com,2013-05-26 01:20:00,
2013-05-25 21:36:00,65.3,51.1,29.94,SE,135,0.0,-999.0,60,-99.99,,,0.00,Acu-Link.com,2013-05-26 01:36:00,
2013-05-25 21:51:00,65.1,50.0,29.95,South,180,0.0,-999.0,58,-99.99,,,0.00,Acu-Link.com,2013-05-26 01:51:00,
2013-05-25 22:06:00,65.1,50.4,29.94,SSE,157,0.0,-999.0,59,-99.99,,,0.00,Acu-Link.com,2013-05-26 02:06:00,
2013-05-25 22:21:00,64.9,50.2,29.94,SSE,157,0.0,-999.0,59,-99.99,,,0.00,Acu-Link.com,2013-05-26 02:21:00,
2013-05-25 22:36:00,64.8,49.7,29.94,SSE,157,0.0,-999.0,58,-99.99,,,0.00,Acu-Link.com,2013-05-26 02:36:00,
2013-05-25 22:51:00,64.6,44.5,29.95,ESE,112,0.0,-999.0,48,-99.99,,,0.00,Acu-Link.com,2013-05-26 02:51:00,
2013-05-25 23:06:00,64.6,42.2,29.94,ESE,112,0.0,-999.0,44,-99.99,,,0.00,Acu-Link.com,2013-05-26 03:06:00,
2013-05-25 23:21:00,64.4,42.6,29.92,SSE,157,0.0,-999.0,45,-99.99,,,0.00,Acu-Link.com,2013-05-26 03:21:00,
2013-05-25 23:36:00,64.0,45.5,29.92,SSE,157,0.0,-999.0,51,-99.99,,,0.00,Acu-Link.com,2013-05-26 03:36:00,
2013-05-25 23:52:00,63.7,46.2,29.92,SSE,157,0.0,-999.0,53,-99.99,,,0.00,Acu-Link.com,2013-05-26 03:52:00,